Time;durP1;ratioP1;P1;durP2;ratioP2;P2;SDS_P1;SDS_P2;PMS_P1;PMS_P2;Temp;Humidity;BMP_temperature;BMP_pressure;BME280_temperature;BME280_humidity;BME280_pressure;Samples;Min_cycle;Max_cycle;Signal;HPM_P1;HPM_P2
2022/03/11 00:02:01;;;;;;;;;;;6.40;99.90;;;;;;5072338;28;19931;-65
2022/03/11 00:04:26;;;;;;;;;;;6.30;99.90;;;;;;5054948;28;19931;-62
2022/03/11 00:07:11;;;;;;;;;;;6.30;99.90;;;;;;5071961;28;19955;-63
2022/03/11 00:09:37;;;;;;;;;;;6.30;99.90;;;;;;5071587;28;19974;-63
2022/03/11 00:12:03;;;;;;;;;;;6.30;99.90;;;;;;5070629;28;20373;-63
2022/03/11 00:14:29;;;;;;;;;;;6.20;99.90;;;;;;5071327;28;20006;-63
2022/03/11 00:16:54;;;;;;;;;;;6.20;99.90;;;;;;5070550;28;20334;-63
2022/03/11 00:19:20;;;;;;;;;;;6.10;99.90;;;;;;5071372;28;19929;-62
2022/03/11 00:21:46;;;;;;;;;;;6.10;99.90;;;;;;5072366;28;19925;-69
2022/03/11 00:24:12;;;;;;;;;;;6.00;99.90;;;;;;5071045;28;19924;-63
2022/03/11 00:26:38;;;;;;;;;;;6.00;99.90;;;;;;5072575;28;19924;-63
2022/03/11 00:29:03;;;;;;;;;;;6.00;99.90;;;;;;5072100;28;20027;-63
2022/03/11 00:31:29;;;;;;;;;;;5.90;99.90;;;;;;5105229;28;19925;-62
2022/03/11 00:33:55;;;;;;;;;;;5.90;99.90;;;;;;5071720;28;19977;-66
2022/03/11 00:36:21;;;;;;;;;;;5.90;99.90;;;;;;5071410;28;19994;-62
2022/03/11 00:38:46;;;;;;;;;;;5.80;99.90;;;;;;5072270;28;19931;-63
2022/03/11 00:41:12;;;;;;;;;;;5.80;99.90;;;;;;5070640;28;19935;-62
2022/03/11 00:43:38;;;;;;;;;;;5.80;99.90;;;;;;5071034;28;19932;-64
2022/03/11 00:46:04;;;;;;;;;;;5.70;99.90;;;;;;5070447;28;19928;-63
2022/03/11 00:48:29;;;;;;;;;;;5.70;99.90;;;;;;5104926;28;19989;-62
2022/03/11 00:50:57;;;;;;;;;;;5.70;99.90;;;;;;5053959;28;19931;-62
2022/03/11 00:53:22;;;;;;;;;;;5.70;99.90;;;;;;5071865;28;20275;-63
2022/03/11 00:55:48;;;;;;;;;;;5.70;99.90;;;;;;5070869;28;19940;-61
2022/03/11 00:58:14;;;;;;;;;;;5.70;99.90;;;;;;5071379;28;19925;-63
2022/03/11 01:00:39;;;;;;;;;;;5.60;99.90;;;;;;5053997;28;20370;-62
2022/03/11 01:03:05;;;;;;;;;;;5.60;99.90;;;;;;5070206;28;19924;-62
2022/03/11 01:05:30;;;;;;;;;;;5.60;99.90;;;;;;5071651;28;19963;-63
2022/03/11 01:07:57;;;;;;;;;;;5.60;99.90;;;;;;5071446;28;19931;-64
2022/03/11 01:10:22;;;;;;;;;;;5.60;99.90;;;;;;5070573;28;19930;-64
2022/03/11 01:12:48;;;;;;;;;;;5.60;99.90;;;;;;5070899;28;19924;-62
2022/03/11 01:15:14;;;;;;;;;;;5.50;99.90;;;;;;5070074;28;20381;-62
2022/03/11 01:17:39;;;;;;;;;;;5.50;99.90;;;;;;5070687;28;19975;-62
2022/03/11 01:20:06;;;;;;;;;;;5.50;99.90;;;;;;5070423;28;20012;-62
2022/03/11 01:22:32;;;;;;;;;;;5.40;99.90;;;;;;5071590;28;19970;-62
2022/03/11 01:24:57;;;;;;;;;;;5.40;99.90;;;;;;5071022;28;20424;-64
2022/03/11 01:27:23;;;;;;;;;;;5.40;99.90;;;;;;5071550;28;19924;-64
2022/03/11 01:29:49;;;;;;;;;;;5.30;99.90;;;;;;5071842;28;19924;-63
2022/03/11 01:32:15;;;;;;;;;;;5.30;99.90;;;;;;5075019;28;19920;-67
2022/03/11 01:34:40;;;;;;;;;;;5.30;99.90;;;;;;5075791;28;19924;-63
2022/03/11 01:37:06;;;;;;;;;;;5.20;99.90;;;;;;5073879;28;19978;-63
2022/03/11 01:39:32;;;;;;;;;;;5.20;99.90;;;;;;5058020;28;19929;-62
2022/03/11 01:41:57;;;;;;;;;;;5.20;99.90;;;;;;5075263;28;19924;-70
2022/03/11 01:44:26;;;;;;;;;;;5.20;99.90;;;;;;5074586;28;19985;-64
2022/03/11 01:46:52;;;;;;;;;;;5.10;99.90;;;;;;5074419;28;20346;-67
2022/03/11 01:49:18;;;;;;;;;;;5.10;99.90;;;;;;5075239;28;19997;-62
2022/03/11 01:51:44;;;;;;;;;;;5.10;99.90;;;;;;5075057;28;20070;-64
2022/03/11 01:54:10;;;;;;;;;;;5.00;99.90;;;;;;5073947;28;20021;-63
2022/03/11 01:56:37;;;;;;;;;;;5.00;99.90;;;;;;5075267;28;20366;-62
2022/03/11 01:59:03;;;;;;;;;;;5.00;99.90;;;;;;5073116;28;20390;-64
2022/03/11 02:01:28;;;;;;;;;;;4.90;99.90;;;;;;5074033;28;19978;-63
2022/03/11 02:03:57;;;;;;;;;;;4.90;99.90;;;;;;5074754;28;20374;-64
2022/03/11 02:06:22;;;;;;;;;;;4.90;99.90;;;;;;5056715;28;19928;-63
2022/03/11 02:08:48;;;;;;;;;;;4.90;99.90;;;;;;5107937;28;19975;-63
2022/03/11 02:11:14;;;;;;;;;;;4.90;99.90;;;;;;5073201;28;19924;-62
2022/03/11 02:13:43;;;;;;;;;;;4.80;99.90;;;;;;5074073;28;19947;-64
2022/03/11 02:16:13;;;;;;;;;;;4.80;99.90;;;;;;5074596;28;19955;-63
2022/03/11 02:18:39;;;;;;;;;;;4.80;99.90;;;;;;5073507;28;19924;-63
2022/03/11 02:21:04;;;;;;;;;;;4.70;99.90;;;;;;5073345;28;20012;-63
2022/03/11 02:23:36;;;;;;;;;;;4.70;99.90;;;;;;5074741;28;19963;-63
2022/03/11 02:26:02;;;;;;;;;;;4.70;99.90;;;;;;5074745;28;19932;-70
2022/03/11 02:28:32;;;;;;;;;;;4.60;99.90;;;;;;5073594;28;20004;-62
2022/03/11 02:30:58;;;;;;;;;;;4.60;99.90;;;;;;5074526;28;20062;-63
2022/03/11 02:33:23;;;;;;;;;;;4.50;99.90;;;;;;5072915;28;19921;-63
2022/03/11 02:35:49;;;;;;;;;;;4.50;99.90;;;;;;5056994;28;19924;-62
2022/03/11 02:38:15;;;;;;;;;;;4.50;99.90;;;;;;5073685;28;19924;-64
2022/03/11 02:40:40;;;;;;;;;;;4.50;99.90;;;;;;5074116;28;19928;-64
2022/03/11 02:43:06;;;;;;;;;;;4.40;99.90;;;;;;5072926;28;20324;-64
2022/03/11 02:45:31;;;;;;;;;;;4.40;99.90;;;;;;5072845;28;19946;-62
2022/03/11 02:47:57;;;;;;;;;;;4.40;99.90;;;;;;5073154;28;19974;-63
2022/03/11 02:50:23;;;;;;;;;;;4.30;99.90;;;;;;5073720;28;20011;-62
2022/03/11 02:52:48;;;;;;;;;;;4.30;99.90;;;;;;5073220;28;19979;-62
2022/03/11 02:55:14;;;;;;;;;;;4.30;99.90;;;;;;5072597;28;19932;-63
2022/03/11 02:57:39;;;;;;;;;;;4.30;99.90;;;;;;5107052;28;19932;-64
2022/03/11 03:00:06;;;;;;;;;;;4.30;99.90;;;;;;5073738;28;19951;-69
2022/03/11 03:02:32;;;;;;;;;;;4.30;99.90;;;;;;5072921;28;19925;-63
2022/03/11 03:04:57;;;;;;;;;;;4.20;99.90;;;;;;5074147;28;20417;-63
2022/03/11 03:07:23;;;;;;;;;;;4.20;99.90;;;;;;5072756;28;19970;-63
2022/03/11 03:09:50;;;;;;;;;;;4.20;99.90;;;;;;5071845;28;20896;-64
2022/03/11 03:12:16;;;;;;;;;;;4.20;99.90;;;;;;5072048;28;19925;-63
2022/03/11 03:14:41;;;;;;;;;;;4.20;99.90;;;;;;5072869;28;19925;-65
2022/03/11 03:17:07;;;;;;;;;;;4.10;99.90;;;;;;5073631;28;20358;-69
2022/03/11 03:19:35;;;;;;;;;;;4.10;99.90;;;;;;5106373;28;19936;-62
2022/03/11 03:22:02;;;;;;;;;;;4.10;99.90;;;;;;5073797;28;20015;-63
2022/03/11 03:24:28;;;;;;;;;;;4.10;99.90;;;;;;5072854;28;19968;-62
2022/03/11 03:26:55;;;;;;;;;;;4.10;99.90;;;;;;5072601;28;19963;-65
2022/03/11 03:29:21;;;;;;;;;;;4.00;99.90;;;;;;5072302;28;19935;-63
2022/03/11 03:31:47;;;;;;;;;;;4.00;99.90;;;;;;5072430;28;19924;-63
2022/03/11 03:34:12;;;;;;;;;;;4.00;99.90;;;;;;5073025;28;19929;-64
2022/03/11 03:36:38;;;;;;;;;;;4.00;99.90;;;;;;5073607;28;19931;-63
2022/03/11 03:39:03;;;;;;;;;;;4.10;99.90;;;;;;5072184;28;19924;-62
2022/03/11 03:41:29;;;;;;;;;;;3.90;99.90;;;;;;5071646;28;19931;-63
2022/03/11 03:43:55;;;;;;;;;;;3.90;99.90;;;;;;5072242;28;20281;-62
2022/03/11 03:46:20;;;;;;;;;;;3.90;99.90;;;;;;5071592;28;19979;-63
2022/03/11 03:48:46;;;;;;;;;;;3.90;99.90;;;;;;5072111;28;19970;-62
2022/03/11 03:51:12;;;;;;;;;;;3.90;99.90;;;;;;5072968;28;19981;-70
2022/03/11 03:53:37;;;;;;;;;;;3.80;99.90;;;;;;5054547;28;19925;-62
2022/03/11 03:56:03;;;;;;;;;;;3.80;99.90;;;;;;5055249;28;19924;-63
2022/03/11 03:58:28;;;;;;;;;;;3.80;99.90;;;;;;5072675;28;19924;-63
2022/03/11 04:00:54;;;;;;;;;;;3.80;99.90;;;;;;5073249;28;19924;-63
2022/03/11 04:03:20;;;;;;;;;;;3.70;99.90;;;;;;5072393;28;20382;-65
2022/03/11 04:05:46;;;;;;;;;;;3.70;99.90;;;;;;5072446;28;19925;-63
2022/03/11 04:08:11;;;;;;;;;;;3.70;99.90;;;;;;5071308;28;19924;-62
2022/03/11 04:10:38;;;;;;;;;;;3.80;99.90;;;;;;5070791;28;19971;-64
2022/03/11 04:13:04;;;;;;;;;;;3.60;99.90;;;;;;5071246;28;20366;-63
2022/03/11 04:15:30;;;;;;;;;;;3.70;99.90;;;;;;5072268;28;20027;-64
2022/03/11 04:17:55;;;;;;;;;;;3.60;99.90;;;;;;5072641;28;20022;-63
2022/03/11 04:20:21;;;;;;;;;;;3.60;99.90;;;;;;5071190;28;20030;-62
2022/03/11 04:22:47;;;;;;;;;;;3.50;99.90;;;;;;5071340;28;19946;-61
2022/03/11 04:25:13;;;;;;;;;;;3.50;99.90;;;;;;5071118;28;19936;-65
2022/03/11 04:27:39;;;;;;;;;;;3.60;99.90;;;;;;5072053;28;19931;-63
2022/03/11 04:30:05;;;;;;;;;;;3.40;99.90;;;;;;5071449;28;19925;-62
2022/03/11 04:32:31;;;;;;;;;;;3.40;99.90;;;;;;5104823;28;19924;-64
2022/03/11 04:34:56;;;;;;;;;;;3.50;99.90;;;;;;5072268;28;20290;-63
2022/03/11 04:37:22;;;;;;;;;;;3.40;99.90;;;;;;5071762;28;20285;-63
2022/03/11 04:39:47;;;;;;;;;;;3.40;99.90;;;;;;5071097;28;19931;-63
2022/03/11 04:42:13;;;;;;;;;;;3.30;99.90;;;;;;5072293;28;20417;-64
2022/03/11 04:44:39;;;;;;;;;;;3.30;99.90;;;;;;5054183;28;19999;-63
2022/03/11 04:47:04;;;;;;;;;;;3.20;99.90;;;;;;5071041;28;19928;-64
2022/03/11 04:49:30;;;;;;;;;;;3.20;99.90;;;;;;5070731;28;20408;-63
2022/03/11 04:51:56;;;;;;;;;;;3.20;99.90;;;;;;5072164;28;19993;-63
2022/03/11 04:54:21;;;;;;;;;;;3.20;99.90;;;;;;5070040;28;20362;-69
2022/03/11 04:56:47;;;;;;;;;;;3.10;99.90;;;;;;5070764;28;19925;-63
2022/03/11 04:59:13;;;;;;;;;;;3.10;99.90;;;;;;5070784;28;19924;-62
2022/03/11 05:01:38;;;;;;;;;;;3.10;99.90;;;;;;5070461;28;19924;-65
2022/03/11 05:04:04;;;;;;;;;;;3.10;99.90;;;;;;5103063;28;20371;-64
2022/03/11 05:06:29;;;;;;;;;;;3.10;99.90;;;;;;5071275;28;19925;-63
2022/03/11 05:08:55;;;;;;;;;;;3.00;99.90;;;;;;5070948;28;19931;-63
2022/03/11 05:11:22;;;;;;;;;;;3.00;99.90;;;;;;5071082;28;19928;-62
2022/03/11 05:13:47;;;;;;;;;;;3.00;99.90;;;;;;5070482;28;19924;-66
2022/03/11 05:16:13;;;;;;;;;;;2.90;99.90;;;;;;5071933;28;19931;-64
2022/03/11 05:18:38;;;;;;;;;;;3.10;99.90;;;;;;5070423;28;19943;-62
2022/03/11 05:21:04;;;;;;;;;;;2.90;99.90;;;;;;5071960;28;20066;-63
2022/03/11 05:23:30;;;;;;;;;;;2.90;99.90;;;;;;5070570;28;20282;-63
2022/03/11 05:25:55;;;;;;;;;;;2.90;99.90;;;;;;5071764;28;19940;-63
2022/03/11 05:28:21;;;;;;;;;;;2.90;99.90;;;;;;5070854;28;20320;-64
2022/03/11 05:30:47;;;;;;;;;;;2.80;99.90;;;;;;5071300;28;19975;-63
2022/03/11 05:33:12;;;;;;;;;;;2.90;99.90;;;;;;5071760;28;19928;-63
2022/03/11 05:35:38;;;;;;;;;;;2.80;99.90;;;;;;5104123;28;19974;-62
2022/03/11 05:38:04;;;;;;;;;;;2.80;99.90;;;;;;5070464;28;19974;-62
2022/03/11 05:40:29;;;;;;;;;;;2.80;99.90;;;;;;5070149;28;19924;-64
2022/03/11 05:42:55;;;;;;;;;;;2.80;99.90;;;;;;5071576;28;20378;-64
2022/03/11 05:45:20;;;;;;;;;;;2.70;99.90;;;;;;5070486;28;19978;-63
2022/03/11 05:47:46;;;;;;;;;;;2.70;99.90;;;;;;5069653;28;19924;-63
2022/03/11 05:50:12;;;;;;;;;;;2.90;99.90;;;;;;5071529;28;19928;-62
2022/03/11 05:52:38;;;;;;;;;;;2.70;99.90;;;;;;5070644;28;19924;-67
2022/03/11 05:55:05;;;;;;;;;;;2.70;99.90;;;;;;5071276;28;20330;-63
2022/03/11 05:57:30;;;;;;;;;;;2.70;99.90;;;;;;5069811;28;20401;-62
2022/03/11 05:59:56;;;;;;;;;;;2.70;99.90;;;;;;5103761;28;19968;-63
2022/03/11 06:02:22;;;;;;;;;;;2.70;99.90;;;;;;5069995;28;19928;-62
2022/03/11 06:04:47;;;;;;;;;;;2.70;99.90;;;;;;5069781;28;20114;-64
2022/03/11 06:07:13;;;;;;;;;;;3.00;99.90;;;;;;5104072;28;20266;-63
2022/03/11 06:09:38;;;;;;;;;;;2.70;99.90;;;;;;5071003;28;19924;-63
2022/03/11 06:12:04;;;;;;;;;;;2.70;99.90;;;;;;5069631;28;20289;-63
2022/03/11 06:14:30;;;;;;;;;;;2.70;99.90;;;;;;5070800;28;20121;-64
2022/03/11 06:16:55;;;;;;;;;;;2.80;99.90;;;;;;5074229;28;20328;-64
2022/03/11 06:19:22;;;;;;;;;;;2.80;99.90;;;;;;5073441;28;20007;-63
2022/03/11 06:21:47;;;;;;;;;;;2.70;99.90;;;;;;5075015;28;19925;-62
2022/03/11 06:24:13;;;;;;;;;;;2.70;99.90;;;;;;5073597;28;19925;-62
2022/03/11 06:26:40;;;;;;;;;;;3.10;99.90;;;;;;5074628;28;19960;-62
2022/03/11 06:29:06;;;;;;;;;;;2.80;99.90;;;;;;5073574;28;20303;-65
2022/03/11 06:31:32;;;;;;;;;;;2.80;99.90;;;;;;5074487;28;20024;-65
2022/03/11 06:33:59;;;;;;;;;;;2.80;99.90;;;;;;5056928;28;19924;-62
2022/03/11 06:36:25;;;;;;;;;;;2.90;99.90;;;;;;5056720;28;19924;-63
2022/03/11 06:38:51;;;;;;;;;;;2.80;99.90;;;;;;5056184;28;19938;-63
2022/03/11 06:41:17;;;;;;;;;;;3.00;99.90;;;;;;5074396;28;19924;-62
2022/03/11 06:43:42;;;;;;;;;;;2.90;99.90;;;;;;5074059;28;19935;-63
2022/03/11 06:46:08;;;;;;;;;;;2.90;99.90;;;;;;5073091;28;20282;-63
2022/03/11 06:48:34;;;;;;;;;;;3.00;99.90;;;;;;5072990;28;20389;-71
2022/03/11 06:51:04;;;;;;;;;;;3.00;99.90;;;;;;5073091;28;20001;-63
2022/03/11 06:53:33;;;;;;;;;;;3.00;99.90;;;;;;5072926;28;19940;-62
2022/03/11 06:56:00;;;;;;;;;;;3.00;99.90;;;;;;5074261;28;20332;-63
2022/03/11 06:58:27;;;;;;;;;;;3.10;99.90;;;;;;5072808;28;19924;-63
2022/03/11 07:00:52;;;;;;;;;;;3.10;99.90;;;;;;5073758;28;20424;-62
2022/03/11 07:03:18;;;;;;;;;;;3.10;99.90;;;;;;5072745;28;20001;-63
2022/03/11 07:05:43;;;;;;;;;;;3.10;99.90;;;;;;5072632;28;20021;-64
2022/03/11 07:08:10;;;;;;;;;;;3.20;99.90;;;;;;5073752;28;19931;-63
2022/03/11 07:10:36;;;;;;;;;;;3.30;99.90;;;;;;5073739;28;19924;-63
2022/03/11 07:13:01;;;;;;;;;;;3.30;99.90;;;;;;5072694;28;19924;-63
2022/03/11 07:15:27;;;;;;;;;;;3.40;99.90;;;;;;5072744;28;20018;-63
2022/03/11 07:17:53;;;;;;;;;;;3.60;99.90;;;;;;5072275;28;19932;-62
2022/03/11 07:20:19;;;;;;;;;;;4.00;99.90;;;;;;5073910;28;19925;-61
2022/03/11 07:22:47;;;;;;;;;;;4.50;99.90;;;;;;5072552;28;19998;-62
2022/03/11 07:25:16;;;;;;;;;;;5.10;99.90;;;;;;5073400;28;20385;-64
2022/03/11 07:27:42;;;;;;;;;;;5.60;99.90;;;;;;5072431;28;20175;-63
2022/03/11 07:30:11;;;;;;;;;;;6.10;99.90;;;;;;5073679;28;19924;-64
2022/03/11 07:32:40;;;;;;;;;;;6.40;99.90;;;;;;5072347;28;20018;-61
2022/03/11 07:35:08;;;;;;;;;;;6.70;99.90;;;;;;5073526;28;20007;-64
2022/03/11 07:37:35;;;;;;;;;;;7.00;99.90;;;;;;5073362;28;19925;-61
2022/03/11 07:40:00;;;;;;;;;;;7.20;99.90;;;;;;5073119;28;19990;-64
2022/03/11 07:42:26;;;;;;;;;;;7.70;99.90;;;;;;5073402;28;20404;-62
2022/03/11 07:44:51;;;;;;;;;;;8.10;99.90;;;;;;5073054;28;19928;-63
2022/03/11 07:47:17;;;;;;;;;;;8.60;99.90;;;;;;5073665;28;19924;-63
2022/03/11 07:49:43;;;;;;;;;;;9.20;98.90;;;;;;5073041;28;19935;-65
2022/03/11 07:52:15;;;;;;;;;;;9.60;99.30;;;;;;5072168;28;20403;-65
2022/03/11 07:54:41;;;;;;;;;;;10.10;97.30;;;;;;5073024;28;19935;-67
2022/03/11 07:57:06;;;;;;;;;;;10.70;94.30;;;;;;5071815;28;19925;-63
2022/03/11 07:59:33;;;;;;;;;;;10.90;94.10;;;;;;5072992;28;19928;-63
2022/03/11 08:01:59;;;;;;;;;;;11.30;91.90;;;;;;5071503;28;19932;-63
2022/03/11 08:04:25;;;;;;;;;;;11.60;89.70;;;;;;5055273;28;19928;-63
2022/03/11 08:06:51;;;;;;;;;;;11.60;88.30;;;;;;5072554;28;20439;-63
2022/03/11 08:09:16;;;;;;;;;;;11.90;89.90;;;;;;5071654;28;19924;-64
2022/03/11 08:11:42;;;;;;;;;;;12.10;86.20;;;;;;5072593;28;20374;-66
2022/03/11 08:14:08;;;;;;;;;;;12.20;85.10;;;;;;5071197;28;19947;-62
2022/03/11 08:16:34;;;;;;;;;;;12.30;83.60;;;;;;5072395;28;19924;-64
2022/03/11 08:18:59;;;;;;;;;;;12.20;83.70;;;;;;5072363;28;19931;-62
2022/03/11 08:21:25;;;;;;;;;;;12.20;80.70;;;;;;5072538;28;20433;-62
2022/03/11 08:23:51;;;;;;;;;;;12.20;80.00;;;;;;5070663;28;19928;-62
2022/03/11 08:26:17;;;;;;;;;;;12.20;79.80;;;;;;5072711;28;19931;-63
2022/03/11 08:28:43;;;;;;;;;;;12.30;78.30;;;;;;5072600;28;19925;-62
2022/03/11 08:31:09;;;;;;;;;;;12.40;79.20;;;;;;5072147;28;19931;-62
2022/03/11 08:33:37;;;;;;;;;;;12.60;77.50;;;;;;5071115;28;20365;-62
2022/03/11 08:36:02;;;;;;;;;;;12.50;76.90;;;;;;5072202;28;19928;-62
2022/03/11 08:38:28;;;;;;;;;;;12.50;77.60;;;;;;5070969;28;20341;-63
2022/03/11 08:40:54;;;;;;;;;;;12.60;76.40;;;;;;5071862;28;19931;-62
2022/03/11 08:43:22;;;;;;;;;;;12.70;75.90;;;;;;5071028;28;19929;-64
2022/03/11 08:45:47;;;;;;;;;;;12.80;75.30;;;;;;5071871;28;19932;-72
2022/03/11 08:48:13;;;;;;;;;;;12.90;74.40;;;;;;5071863;28;19924;-63
2022/03/11 08:50:39;;;;;;;;;;;13.00;74.10;;;;;;5070837;28;20378;-62
2022/03/11 08:53:04;;;;;;;;;;;13.10;74.40;;;;;;5071434;28;19966;-64
2022/03/11 08:55:30;;;;;;;;;;;13.20;73.30;;;;;;5070871;28;20388;-63
2022/03/11 08:57:56;;;;;;;;;;;13.10;72.10;;;;;;5053485;28;20041;-64
2022/03/11 09:00:22;;;;;;;;;;;13.10;72.30;;;;;;5071797;28;20023;-63
2022/03/11 09:02:48;;;;;;;;;;;13.20;71.70;;;;;;5071584;28;20054;-62
2022/03/11 09:05:17;;;;;;;;;;;13.10;72.10;;;;;;5069087;28;19924;-61
2022/03/11 09:07:42;;;;;;;;;;;13.00;71.40;;;;;;5071612;28;19929;-63
2022/03/11 09:10:09;;;;;;;;;;;13.10;71.40;;;;;;5068870;28;19989;-63
2022/03/11 09:12:35;;;;;;;;;;;13.20;71.30;;;;;;5070225;28;19932;-65
2022/03/11 09:15:01;;;;;;;;;;;13.30;71.30;;;;;;5071040;28;20175;-63
2022/03/11 09:17:27;;;;;;;;;;;13.20;70.90;;;;;;5070692;28;20122;-63
2022/03/11 09:19:54;;;;;;;;;;;12.70;70.80;;;;;;5071395;28;19978;-66
2022/03/11 09:22:20;;;;;;;;;;;12.00;72.10;;;;;;5070220;28;20481;-63
2022/03/11 09:24:46;;;;;;;;;;;11.40;72.90;;;;;;5071741;28;19990;-63
2022/03/11 09:27:11;;;;;;;;;;;10.90;74.50;;;;;;5071192;28;19924;-62
2022/03/11 09:29:37;;;;;;;;;;;10.70;74.50;;;;;;5071741;28;20220;-65
2022/03/11 09:32:03;;;;;;;;;;;10.50;75.70;;;;;;5070303;28;19931;-63
2022/03/11 09:34:29;;;;;;;;;;;10.10;76.50;;;;;;5069746;28;19924;-67
2022/03/11 09:36:55;;;;;;;;;;;9.90;77.80;;;;;;5103544;28;20293;-66
2022/03/11 09:39:21;;;;;;;;;;;9.80;78.00;;;;;;5069822;28;20349;-64
2022/03/11 09:41:47;;;;;;;;;;;9.70;79.10;;;;;;5070335;28;19925;-63
2022/03/11 09:44:13;;;;;;;;;;;9.50;80.30;;;;;;5070106;28;20423;-63
2022/03/11 09:46:40;;;;;;;;;;;9.50;81.40;;;;;;5070828;28;19925;-62
2022/03/11 09:49:05;;;;;;;;;;;9.50;81.50;;;;;;5069673;28;19931;-64
2022/03/11 09:51:32;;;;;;;;;;;9.60;81.90;;;;;;5073730;28;19924;-64
2022/03/11 09:53:58;;;;;;;;;;;9.70;82.00;;;;;;5074975;28;19974;-69
2022/03/11 09:56:24;;;;;;;;;;;9.80;81.60;;;;;;5073866;28;20290;-66
2022/03/11 09:58:50;;;;;;;;;;;9.70;80.90;;;;;;5074604;28;20061;-62
2022/03/11 10:01:15;;;;;;;;;;;9.60;81.20;;;;;;5074296;28;20007;-61
2022/03/11 10:03:41;;;;;;;;;;;9.50;81.30;;;;;;5056990;28;20027;-62
2022/03/11 10:06:06;;;;;;;;;;;9.40;83.50;;;;;;5072826;28;19924;-64
2022/03/11 10:08:33;;;;;;;;;;;9.50;81.60;;;;;;5074005;28;19928;-63
2022/03/11 10:11:17;;;;;;;;;;;9.60;81.10;;;;;;5055768;28;19971;-69
2022/03/11 10:13:43;;;;;;;;;;;9.60;78.80;;;;;;5073709;28;19929;-63
2022/03/11 10:16:22;;;;;;;;;;;9.50;79.50;;;;;;5071573;28;19924;-62
2022/03/11 10:18:55;;;;;;;;;;;9.50;79.50;;;;;;5073453;28;19931;-62
2022/03/11 10:21:23;;;;;;;;;;;9.60;79.70;;;;;;5072455;28;19924;-63
2022/03/11 10:23:49;;;;;;;;;;;9.70;79.20;;;;;;5074950;28;20266;-62
2022/03/11 10:26:28;;;;;;;;;;;9.70;79.60;;;;;;5074292;28;19928;-61
2022/03/11 10:29:01;;;;;;;;;;;9.70;78.30;;;;;;5057083;28;19970;-63
2022/03/11 10:31:30;;;;;;;;;;;9.60;78.90;;;;;;5072031;28;19943;-64
2022/03/11 10:34:15;;;;;;;;;;;9.60;79.80;;;;;;5073139;28;19947;-62
2022/03/11 10:37:01;;;;;;;;;;;9.70;79.80;;;;;;5072740;28;19932;-62
2022/03/11 10:39:30;;;;;;;;;;;9.80;79.00;;;;;;5054936;28;19924;-62
2022/03/11 10:41:56;;;;;;;;;;;9.70;79.00;;;;;;5073146;28;19924;-62
2022/03/11 10:44:25;;;;;;;;;;;9.70;78.60;;;;;;5071664;28;20275;-62
2022/03/11 10:46:52;;;;;;;;;;;9.60;78.60;;;;;;5072658;28;20015;-63
2022/03/11 10:49:43;;;;;;;;;;;9.50;79.00;;;;;;5073114;28;20235;-63
2022/03/11 10:52:09;;;;;;;;;;;9.50;80.10;;;;;;5070868;28;20272;-62
2022/03/11 10:54:41;;;;;;;;;;;9.50;79.70;;;;;;5072917;28;19978;-61
2022/03/11 10:57:10;;;;;;;;;;;9.50;82.40;;;;;;5073662;28;19987;-66
2022/03/11 10:59:36;;;;;;;;;;;9.50;81.00;;;;;;5073705;28;19931;-61
2022/03/11 11:02:02;;;;;;;;;;;9.60;79.90;;;;;;5071706;28;19929;-61
2022/03/11 11:04:28;;;;;;;;;;;9.50;79.60;;;;;;5073346;28;19925;-61
2022/03/11 11:06:54;;;;;;;;;;;9.60;79.20;;;;;;5073448;28;20401;-61
2022/03/11 11:09:22;;;;;;;;;;;9.60;79.30;;;;;;5072240;28;20061;-64
2022/03/11 11:11:48;;;;;;;;;;;9.60;79.10;;;;;;5071664;28;20068;-61
2022/03/11 11:14:14;;;;;;;;;;;9.60;79.10;;;;;;5072422;28;19943;-61
2022/03/11 11:16:40;;;;;;;;;;;9.60;79.10;;;;;;5072735;28;20400;-62
2022/03/11 11:19:10;;;;;;;;;;;9.60;77.90;;;;;;5073589;28;19931;-60
2022/03/11 11:21:38;;;;;;;;;;;9.60;78.30;;;;;;5073442;28;19924;-61
2022/03/11 11:24:05;;;;;;;;;;;9.70;77.30;;;;;;5073346;28;19943;-63
2022/03/11 11:26:30;;;;;;;;;;;9.70;77.50;;;;;;5070427;28;19931;-62
2022/03/11 11:28:58;;;;;;;;;;;9.70;77.50;;;;;;5072404;28;19925;-61
2022/03/11 11:31:23;;;;;;;;;;;9.80;77.50;;;;;;5071543;28;19986;-64
2022/03/11 11:33:49;;;;;;;;;;;9.70;77.30;;;;;;5071261;28;20336;-62
2022/03/11 11:36:35;;;;;;;;;;;9.80;77.80;;;;;;5071102;28;20480;-61
2022/03/11 11:39:03;;;;;;;;;;;9.90;77.50;;;;;;5071500;28;19931;-62
2022/03/11 11:41:30;;;;;;;;;;;9.90;77.40;;;;;;5071751;28;19924;-62
2022/03/11 11:43:57;;;;;;;;;;;10.00;77.80;;;;;;5071145;28;19924;-63
2022/03/11 11:46:25;;;;;;;;;;;10.10;75.80;;;;;;5070483;28;19972;-62
2022/03/11 11:48:51;;;;;;;;;;;10.20;76.20;;;;;;5071682;28;19943;-61
2022/03/11 11:51:40;;;;;;;;;;;10.30;76.60;;;;;;5070577;28;20374;-62
2022/03/11 11:54:10;;;;;;;;;;;10.30;75.40;;;;;;5069724;28;19924;-61
2022/03/11 11:56:37;;;;;;;;;;;10.30;75.40;;;;;;5070001;28;19924;-61
2022/03/11 11:59:04;;;;;;;;;;;10.20;75.00;;;;;;5071810;28;19932;-61
2022/03/11 12:01:38;;;;;;;;;;;10.30;75.30;;;;;;5071433;28;19947;-61
2022/03/11 12:04:16;;;;;;;;;;;10.30;75.10;;;;;;5069800;28;19924;-59
2022/03/11 12:06:51;;;;;;;;;;;10.40;74.40;;;;;;5072117;28;19975;-64
2022/03/11 12:09:35;;;;;;;;;;;10.30;75.00;;;;;;5070047;28;19931;-61
2022/03/11 12:12:01;;;;;;;;;;;10.30;75.00;;;;;;5071002;28;20011;-61
2022/03/11 12:14:29;;;;;;;;;;;10.60;74.50;;;;;;5070744;28;20012;-61
2022/03/11 12:16:59;;;;;;;;;;;10.40;74.50;;;;;;5051908;28;20251;-63
2022/03/11 12:19:42;;;;;;;;;;;10.40;74.20;;;;;;5069517;28;19979;-63
2022/03/11 12:22:21;;;;;;;;;;;10.40;74.00;;;;;;5068272;28;20015;-63
2022/03/11 12:25:07;;;;;;;;;;;10.50;74.10;;;;;;5069967;28;19986;-62
2022/03/11 12:27:51;;;;;;;;;;;10.40;73.60;;;;;;5070389;28;20308;-62
2022/03/11 12:30:17;;;;;;;;;;;10.50;73.70;;;;;;5071182;28;19932;-66
2022/03/11 12:32:42;;;;;;;;;;;10.60;73.20;;;;;;5069271;28;19936;-63
2022/03/11 12:35:09;;;;;;;;;;;10.70;73.00;;;;;;5069253;28;19973;-64
2022/03/11 12:37:35;;;;;;;;;;;10.70;72.50;;;;;;5070658;28;20051;-61
2022/03/11 12:40:01;;;;;;;;;;;10.70;72.30;;;;;;5053301;28;19972;-64
2022/03/11 12:42:37;;;;;;;;;;;10.70;72.60;;;;;;5069262;28;20319;-63
2022/03/11 12:45:03;;;;;;;;;;;10.90;73.60;;;;;;5069638;28;19931;-62
2022/03/11 12:47:39;;;;;;;;;;;10.90;72.90;;;;;;5052519;28;20358;-61
2022/03/11 12:50:06;;;;;;;;;;;10.90;72.90;;;;;;5070362;28;19976;-62
2022/03/11 12:52:36;;;;;;;;;;;10.90;73.20;;;;;;5068992;28;19946;-63
2022/03/11 12:55:01;;;;;;;;;;;10.90;72.60;;;;;;5070823;28;19924;-63
2022/03/11 12:57:27;;;;;;;;;;;11.00;72.80;;;;;;5070026;28;20301;-63
2022/03/11 12:59:52;;;;;;;;;;;11.00;72.70;;;;;;5070527;28;19931;-61
2022/03/11 13:02:18;;;;;;;;;;;11.10;72.40;;;;;;5052904;28;19968;-61
2022/03/11 13:04:44;;;;;;;;;;;11.10;72.10;;;;;;5069654;28;20405;-66
2022/03/11 13:07:09;;;;;;;;;;;11.10;71.30;;;;;;5070163;28;20382;-63
2022/03/11 13:09:35;;;;;;;;;;;11.10;71.60;;;;;;5069102;28;19932;-66
2022/03/11 13:12:39;;;;;;;;;;;11.20;71.70;;;;;;5070294;28;20517;-61
2022/03/11 13:15:12;;;;;;;;;;;11.20;71.20;;;;;;5027578;28;19925;-61
2022/03/11 13:17:41;;;;;;;;;;;11.30;71.00;;;;;;5026788;28;19929;-61
2022/03/11 13:20:07;;;;;;;;;;;11.30;70.00;;;;;;5050424;28;19925;-64
2022/03/11 13:22:33;;;;;;;;;;;11.40;68.90;;;;;;5069078;28;19935;-67
2022/03/11 13:25:05;;;;;;;;;;;11.50;68.70;;;;;;5068203;28;19925;-62
2022/03/11 13:27:37;;;;;;;;;;;11.50;68.10;;;;;;5069705;28;20439;-64
2022/03/11 13:30:04;;;;;;;;;;;11.50;67.50;;;;;;5069606;28;20037;-63
2022/03/11 13:32:29;;;;;;;;;;;11.50;68.20;;;;;;5070108;28;19924;-63
2022/03/11 13:34:55;;;;;;;;;;;11.50;67.60;;;;;;5069040;28;20070;-62
2022/03/11 13:37:20;;;;;;;;;;;11.60;67.90;;;;;;5068683;28;20293;-63
2022/03/11 13:40:05;;;;;;;;;;;11.60;67.20;;;;;;5069743;28;19920;-62
2022/03/11 13:42:31;;;;;;;;;;;11.60;67.90;;;;;;5070053;28;19931;-62
2022/03/11 13:45:04;;;;;;;;;;;11.70;67.10;;;;;;5052052;28;20297;-62
2022/03/11 13:47:29;;;;;;;;;;;11.70;67.00;;;;;;5051873;28;20015;-61
2022/03/11 13:50:04;;;;;;;;;;;11.70;67.30;;;;;;5068975;28;20432;-62
2022/03/11 13:52:38;;;;;;;;;;;11.80;66.80;;;;;;5068180;28;20003;-60
2022/03/11 13:55:05;;;;;;;;;;;11.80;65.60;;;;;;5069565;28;19921;-62
2022/03/11 13:57:34;;;;;;;;;;;11.80;65.80;;;;;;5068129;28;20500;-62
2022/03/11 14:00:17;;;;;;;;;;;11.80;65.70;;;;;;5068910;28;20002;-61
2022/03/11 14:02:43;;;;;;;;;;;11.80;65.40;;;;;;5069739;28;20065;-63
2022/03/11 14:05:13;;;;;;;;;;;11.80;66.00;;;;;;5069482;28;19933;-61
2022/03/11 14:07:40;;;;;;;;;;;11.80;65.60;;;;;;5051402;28;19924;-62
2022/03/11 14:10:12;;;;;;;;;;;11.80;65.30;;;;;;5069631;28;19924;-61
2022/03/11 14:12:38;;;;;;;;;;;11.80;65.20;;;;;;5068506;28;19928;-62
2022/03/11 14:15:08;;;;;;;;;;;11.80;64.70;;;;;;5068462;28;19924;-62
2022/03/11 14:17:34;;;;;;;;;;;11.80;64.30;;;;;;5067857;28;19980;-65
2022/03/11 14:20:00;;;;;;;;;;;11.80;64.40;;;;;;5068655;28;19978;-61
2022/03/11 14:22:26;;;;;;;;;;;11.80;64.00;;;;;;5069496;28;20469;-60
2022/03/11 14:24:51;;;;;;;;;;;11.80;64.10;;;;;;5068216;28;20166;-62
2022/03/11 14:27:18;;;;;;;;;;;11.80;64.00;;;;;;5068566;28;20020;-62